sensor_id;sensor_type;location;lat;lon;timestamp;P1;durP1;ratioP1;P2;durP2;ratioP2
55288;SDS011;41154;45.394;5.734;2022-12-18T00:01:56;23.75;;;8.93;;
55288;SDS011;41154;45.394;5.734;2022-12-18T00:04:24;18.38;;;11.20;;
55288;SDS011;41154;45.394;5.734;2022-12-18T00:06:51;12.48;;;8.07;;
55288;SDS011;41154;45.394;5.734;2022-12-18T00:09:18;13.40;;;7.93;;
55288;SDS011;41154;45.394;5.734;2022-12-18T00:11:44;16.98;;;8.30;;
55288;SDS011;41154;45.394;5.734;2022-12-18T00:14:12;12.57;;;7.82;;
55288;SDS011;41154;45.394;5.734;2022-12-18T00:16:39;15.25;;;7.30;;
55288;SDS011;41154;45.394;5.734;2022-12-18T00:19:05;15.55;;;9.40;;
55288;SDS011;41154;45.394;5.734;2022-12-18T00:21:32;18.10;;;8.18;;
55288;SDS011;41154;45.394;5.734;2022-12-18T00:23:59;13.18;;;8.32;;
55288;SDS011;41154;45.394;5.734;2022-12-18T00:26:26;18.80;;;7.38;;
55288;SDS011;41154;45.394;5.734;2022-12-18T00:28:59;18.70;;;8.02;;
55288;SDS011;41154;45.394;5.734;2022-12-18T00:31:30;18.67;;;8.60;;
55288;SDS011;41154;45.394;5.734;2022-12-18T00:33:56;18.58;;;8.63;;
55288;SDS011;41154;45.394;5.734;2022-12-18T00:36:23;16.98;;;10.27;;
55288;SDS011;41154;45.394;5.734;2022-12-18T00:38:51;17.60;;;8.52;;
55288;SDS011;41154;45.394;5.734;2022-12-18T00:41:19;15.75;;;8.15;;
55288;SDS011;41154;45.394;5.734;2022-12-18T00:44:04;19.35;;;8.88;;
55288;SDS011;41154;45.394;5.734;2022-12-18T00:46:31;14.77;;;8.57;;
55288;SDS011;41154;45.394;5.734;2022-12-18T00:48:57;17.02;;;8.75;;
55288;SDS011;41154;45.394;5.734;2022-12-18T00:51:23;21.75;;;11.07;;
55288;SDS011;41154;45.394;5.734;2022-12-18T00:53:50;16.38;;;9.63;;
55288;SDS011;41154;45.394;5.734;2022-12-18T00:56:17;25.60;;;11.32;;
55288;SDS011;41154;45.394;5.734;2022-12-18T00:58:43;25.00;;;11.40;;
55288;SDS011;41154;45.394;5.734;2022-12-18T01:01:09;22.20;;;10.68;;
55288;SDS011;41154;45.394;5.734;2022-12-18T01:03:35;21.25;;;9.77;;
55288;SDS011;41154;45.394;5.734;2022-12-18T01:06:07;22.63;;;8.63;;
55288;SDS011;41154;45.394;5.734;2022-12-18T01:08:35;17.58;;;9.07;;
55288;SDS011;41154;45.394;5.734;2022-12-18T01:11:06;17.30;;;10.35;;
55288;SDS011;41154;45.394;5.734;2022-12-18T01:13:33;21.90;;;8.55;;
55288;SDS011;41154;45.394;5.734;2022-12-18T01:15:59;15.88;;;10.68;;
55288;SDS011;41154;45.394;5.734;2022-12-18T01:18:25;30.23;;;11.85;;
55288;SDS011;41154;45.394;5.734;2022-12-18T01:20:51;17.55;;;8.95;;
55288;SDS011;41154;45.394;5.734;2022-12-18T01:23:16;19.38;;;9.63;;
55288;SDS011;41154;45.394;5.734;2022-12-18T01:25:43;22.08;;;9.82;;
55288;SDS011;41154;45.394;5.734;2022-12-18T01:28:09;20.08;;;11.43;;
55288;SDS011;41154;45.394;5.734;2022-12-18T01:30:35;17.25;;;9.55;;
55288;SDS011;41154;45.394;5.734;2022-12-18T01:33:03;15.23;;;8.70;;
55288;SDS011;41154;45.394;5.734;2022-12-18T01:35:31;16.50;;;7.82;;
55288;SDS011;41154;45.394;5.734;2022-12-18T01:37:57;20.13;;;9.73;;
55288;SDS011;41154;45.394;5.734;2022-12-18T01:40:23;18.42;;;10.38;;
55288;SDS011;41154;45.394;5.734;2022-12-18T01:42:52;20.58;;;10.75;;
55288;SDS011;41154;45.394;5.734;2022-12-18T01:47:45;20.45;;;10.73;;
55288;SDS011;41154;45.394;5.734;2022-12-18T01:52:45;21.48;;;8.68;;
55288;SDS011;41154;45.394;5.734;2022-12-18T01:55:17;17.27;;;7.13;;
55288;SDS011;41154;45.394;5.734;2022-12-18T01:57:46;17.77;;;8.57;;
55288;SDS011;41154;45.394;5.734;2022-12-18T02:00:14;11.52;;;5.57;;
55288;SDS011;41154;45.394;5.734;2022-12-18T02:02:44;14.10;;;7.38;;
55288;SDS011;41154;45.394;5.734;2022-12-18T02:05:18;20.45;;;9.65;;
55288;SDS011;41154;45.394;5.734;2022-12-18T02:14:02;18.63;;;8.35;;
55288;SDS011;41154;45.394;5.734;2022-12-18T02:16:50;14.40;;;8.10;;
55288;SDS011;41154;45.394;5.734;2022-12-18T02:19:28;13.45;;;7.38;;
55288;SDS011;41154;45.394;5.734;2022-12-18T02:28:02;14.18;;;6.47;;
55288;SDS011;41154;45.394;5.734;2022-12-18T02:30:33;11.60;;;5.72;;
55288;SDS011;41154;45.394;5.734;2022-12-18T02:33:00;13.85;;;6.50;;
55288;SDS011;41154;45.394;5.734;2022-12-18T02:35:29;10.95;;;7.80;;
55288;SDS011;41154;45.394;5.734;2022-12-18T02:37:58;12.55;;;6.55;;
55288;SDS011;41154;45.394;5.734;2022-12-18T02:40:28;13.32;;;6.75;;
55288;SDS011;41154;45.394;5.734;2022-12-18T02:43:07;11.32;;;6.68;;
55288;SDS011;41154;45.394;5.734;2022-12-18T02:45:34;12.18;;;6.75;;
55288;SDS011;41154;45.394;5.734;2022-12-18T02:48:01;6.65;;;4.40;;
55288;SDS011;41154;45.394;5.734;2022-12-18T02:58:25;12.27;;;5.93;;
55288;SDS011;41154;45.394;5.734;2022-12-18T03:03:56;9.52;;;4.68;;
55288;SDS011;41154;45.394;5.734;2022-12-18T03:06:30;10.57;;;6.40;;
55288;SDS011;41154;45.394;5.734;2022-12-18T03:09:02;15.57;;;6.95;;
55288;SDS011;41154;45.394;5.734;2022-12-18T03:11:34;12.18;;;6.55;;
55288;SDS011;41154;45.394;5.734;2022-12-18T03:14:25;11.77;;;5.57;;
55288;SDS011;41154;45.394;5.734;2022-12-18T03:16:54;8.95;;;5.20;;
55288;SDS011;41154;45.394;5.734;2022-12-18T03:19:25;10.88;;;6.50;;
55288;SDS011;41154;45.394;5.734;2022-12-18T03:21:57;10.30;;;5.90;;
55288;SDS011;41154;45.394;5.734;2022-12-18T03:24:33;9.90;;;4.90;;
55288;SDS011;41154;45.394;5.734;2022-12-18T03:27:01;14.95;;;5.85;;
55288;SDS011;41154;45.394;5.734;2022-12-18T03:32:05;9.15;;;4.25;;
55288;SDS011;41154;45.394;5.734;2022-12-18T03:34:38;6.32;;;3.60;;
55288;SDS011;41154;45.394;5.734;2022-12-18T03:37:08;13.73;;;5.50;;
55288;SDS011;41154;45.394;5.734;2022-12-18T03:39:35;8.63;;;5.72;;
55288;SDS011;41154;45.394;5.734;2022-12-18T03:42:25;9.95;;;5.30;;
55288;SDS011;41154;45.394;5.734;2022-12-18T03:50:07;7.00;;;4.68;;
55288;SDS011;41154;45.394;5.734;2022-12-18T03:55:19;12.75;;;7.05;;
55288;SDS011;41154;45.394;5.734;2022-12-18T03:57:52;11.30;;;5.78;;
55288;SDS011;41154;45.394;5.734;2022-12-18T04:00:20;10.85;;;5.38;;
55288;SDS011;41154;45.394;5.734;2022-12-18T04:02:55;11.68;;;6.60;;
55288;SDS011;41154;45.394;5.734;2022-12-18T04:05:30;10.20;;;5.22;;
55288;SDS011;41154;45.394;5.734;2022-12-18T04:07:59;12.82;;;5.53;;
55288;SDS011;41154;45.394;5.734;2022-12-18T04:10:26;6.95;;;5.00;;
55288;SDS011;41154;45.394;5.734;2022-12-18T04:12:55;8.40;;;4.65;;
55288;SDS011;41154;45.394;5.734;2022-12-18T04:15:23;15.52;;;5.93;;
55288;SDS011;41154;45.394;5.734;2022-12-18T04:17:49;15.90;;;6.22;;
55288;SDS011;41154;45.394;5.734;2022-12-18T04:20:19;8.52;;;5.68;;
55288;SDS011;41154;45.394;5.734;2022-12-18T04:22:46;9.73;;;5.53;;
55288;SDS011;41154;45.394;5.734;2022-12-18T04:25:13;11.23;;;5.65;;
55288;SDS011;41154;45.394;5.734;2022-12-18T04:27:49;11.95;;;5.60;;
55288;SDS011;41154;45.394;5.734;2022-12-18T04:30:15;9.90;;;5.35;;
55288;SDS011;41154;45.394;5.734;2022-12-18T04:32:40;8.82;;;5.78;;
55288;SDS011;41154;45.394;5.734;2022-12-18T04:35:08;10.00;;;5.22;;
55288;SDS011;41154;45.394;5.734;2022-12-18T04:37:37;7.97;;;4.90;;
55288;SDS011;41154;45.394;5.734;2022-12-18T04:40:04;7.65;;;4.82;;
55288;SDS011;41154;45.394;5.734;2022-12-18T04:42:38;8.18;;;5.85;;
55288;SDS011;41154;45.394;5.734;2022-12-18T04:45:05;8.63;;;4.65;;
55288;SDS011;41154;45.394;5.734;2022-12-18T04:47:32;10.73;;;4.70;;
55288;SDS011;41154;45.394;5.734;2022-12-18T04:49:58;11.60;;;4.90;;
55288;SDS011;41154;45.394;5.734;2022-12-18T04:52:23;7.18;;;4.70;;
55288;SDS011;41154;45.394;5.734;2022-12-18T04:54:50;4.30;;;2.90;;
55288;SDS011;41154;45.394;5.734;2022-12-18T04:57:15;6.03;;;3.83;;
55288;SDS011;41154;45.394;5.734;2022-12-18T04:59:43;7.53;;;4.68;;
55288;SDS011;41154;45.394;5.734;2022-12-18T05:02:09;8.27;;;4.95;;
55288;SDS011;41154;45.394;5.734;2022-12-18T05:04:35;4.57;;;3.70;;
55288;SDS011;41154;45.394;5.734;2022-12-18T05:07:02;6.00;;;4.63;;
55288;SDS011;41154;45.394;5.734;2022-12-18T05:09:28;12.93;;;5.13;;
55288;SDS011;41154;45.394;5.734;2022-12-18T05:11:54;10.48;;;3.60;;
55288;SDS011;41154;45.394;5.734;2022-12-18T05:14:19;10.48;;;4.82;;
55288;SDS011;41154;45.394;5.734;2022-12-18T05:16:45;11.30;;;4.72;;
55288;SDS011;41154;45.394;5.734;2022-12-18T05:19:11;8.18;;;5.07;;
55288;SDS011;41154;45.394;5.734;2022-12-18T05:21:37;4.93;;;3.47;;
55288;SDS011;41154;45.394;5.734;2022-12-18T05:24:02;9.35;;;4.55;;
55288;SDS011;41154;45.394;5.734;2022-12-18T05:26:28;8.93;;;4.60;;
55288;SDS011;41154;45.394;5.734;2022-12-18T05:28:54;10.32;;;4.50;;
55288;SDS011;41154;45.394;5.734;2022-12-18T05:31:21;5.10;;;3.67;;
55288;SDS011;41154;45.394;5.734;2022-12-18T05:33:47;10.55;;;4.53;;
55288;SDS011;41154;45.394;5.734;2022-12-18T05:36:13;7.88;;;3.63;;
55288;SDS011;41154;45.394;5.734;2022-12-18T05:38:39;6.35;;;4.07;;
55288;SDS011;41154;45.394;5.734;2022-12-18T05:41:05;5.85;;;4.95;;
55288;SDS011;41154;45.394;5.734;2022-12-18T05:43:33;13.55;;;3.95;;
55288;SDS011;41154;45.394;5.734;2022-12-18T05:46:08;9.38;;;4.88;;
55288;SDS011;41154;45.394;5.734;2022-12-18T05:48:37;5.80;;;4.32;;
55288;SDS011;41154;45.394;5.734;2022-12-18T05:51:06;5.65;;;4.30;;
55288;SDS011;41154;45.394;5.734;2022-12-18T05:53:37;8.00;;;4.00;;
55288;SDS011;41154;45.394;5.734;2022-12-18T05:56:03;8.02;;;4.15;;
55288;SDS011;41154;45.394;5.734;2022-12-18T05:58:31;5.85;;;3.55;;
55288;SDS011;41154;45.394;5.734;2022-12-18T06:00:58;13.23;;;4.20;;
55288;SDS011;41154;45.394;5.734;2022-12-18T06:03:50;7.20;;;3.58;;
55288;SDS011;41154;45.394;5.734;2022-12-18T06:06:16;7.68;;;4.22;;
55288;SDS011;41154;45.394;5.734;2022-12-18T06:08:43;4.80;;;3.33;;
55288;SDS011;41154;45.394;5.734;2022-12-18T06:11:10;14.23;;;4.03;;
55288;SDS011;41154;45.394;5.734;2022-12-18T06:14:38;6.00;;;3.42;;
55288;SDS011;41154;45.394;5.734;2022-12-18T06:17:04;5.03;;;3.22;;
55288;SDS011;41154;45.394;5.734;2022-12-18T06:19:30;10.23;;;4.43;;
55288;SDS011;41154;45.394;5.734;2022-12-18T06:21:56;8.45;;;4.00;;
55288;SDS011;41154;45.394;5.734;2022-12-18T06:24:24;5.05;;;3.58;;
55288;SDS011;41154;45.394;5.734;2022-12-18T06:26:49;6.75;;;3.08;;
55288;SDS011;41154;45.394;5.734;2022-12-18T06:29:15;9.45;;;4.45;;
55288;SDS011;41154;45.394;5.734;2022-12-18T06:31:41;4.88;;;3.50;;
55288;SDS011;41154;45.394;5.734;2022-12-18T06:34:09;6.15;;;4.40;;
55288;SDS011;41154;45.394;5.734;2022-12-18T06:36:35;8.15;;;4.20;;
55288;SDS011;41154;45.394;5.734;2022-12-18T06:39:00;9.18;;;4.85;;
55288;SDS011;41154;45.394;5.734;2022-12-18T06:41:26;5.07;;;3.08;;
55288;SDS011;41154;45.394;5.734;2022-12-18T06:43:52;4.63;;;3.15;;
55288;SDS011;41154;45.394;5.734;2022-12-18T06:46:18;10.70;;;4.00;;
55288;SDS011;41154;45.394;5.734;2022-12-18T06:48:46;7.63;;;4.32;;
55288;SDS011;41154;45.394;5.734;2022-12-18T06:51:17;17.08;;;7.55;;
55288;SDS011;41154;45.394;5.734;2022-12-18T06:53:44;18.33;;;8.20;;
55288;SDS011;41154;45.394;5.734;2022-12-18T06:56:10;17.05;;;8.13;;
55288;SDS011;41154;45.394;5.734;2022-12-18T06:58:36;9.65;;;3.78;;
55288;SDS011;41154;45.394;5.734;2022-12-18T07:01:04;11.00;;;5.03;;
55288;SDS011;41154;45.394;5.734;2022-12-18T07:03:32;5.85;;;3.72;;
55288;SDS011;41154;45.394;5.734;2022-12-18T07:05:58;8.70;;;5.78;;
55288;SDS011;41154;45.394;5.734;2022-12-18T07:08:24;9.52;;;5.45;;
55288;SDS011;41154;45.394;5.734;2022-12-18T07:10:49;9.57;;;4.93;;
55288;SDS011;41154;45.394;5.734;2022-12-18T07:13:16;6.95;;;4.25;;
55288;SDS011;41154;45.394;5.734;2022-12-18T07:15:42;12.90;;;6.90;;
55288;SDS011;41154;45.394;5.734;2022-12-18T07:18:09;7.47;;;4.75;;
55288;SDS011;41154;45.394;5.734;2022-12-18T07:20:35;11.73;;;6.65;;
55288;SDS011;41154;45.394;5.734;2022-12-18T07:23:02;15.48;;;7.90;;
55288;SDS011;41154;45.394;5.734;2022-12-18T07:25:29;15.02;;;5.80;;
55288;SDS011;41154;45.394;5.734;2022-12-18T07:27:54;9.30;;;5.18;;
55288;SDS011;41154;45.394;5.734;2022-12-18T07:30:20;6.97;;;4.90;;
55288;SDS011;41154;45.394;5.734;2022-12-18T07:32:46;10.40;;;4.65;;
55288;SDS011;41154;45.394;5.734;2022-12-18T07:35:12;13.35;;;6.93;;
55288;SDS011;41154;45.394;5.734;2022-12-18T07:37:37;7.90;;;5.53;;
55288;SDS011;41154;45.394;5.734;2022-12-18T07:40:03;13.88;;;7.78;;
55288;SDS011;41154;45.394;5.734;2022-12-18T07:42:29;15.43;;;7.25;;
55288;SDS011;41154;45.394;5.734;2022-12-18T07:44:55;15.70;;;9.00;;
55288;SDS011;41154;45.394;5.734;2022-12-18T07:47:21;15.73;;;9.27;;
55288;SDS011;41154;45.394;5.734;2022-12-18T07:49:47;12.70;;;9.13;;
55288;SDS011;41154;45.394;5.734;2022-12-18T07:52:13;17.40;;;7.80;;
55288;SDS011;41154;45.394;5.734;2022-12-18T07:54:38;12.35;;;7.07;;
55288;SDS011;41154;45.394;5.734;2022-12-18T07:57:05;12.63;;;6.90;;
55288;SDS011;41154;45.394;5.734;2022-12-18T07:59:31;10.45;;;7.45;;
55288;SDS011;41154;45.394;5.734;2022-12-18T08:01:57;15.32;;;8.15;;
55288;SDS011;41154;45.394;5.734;2022-12-18T08:04:24;26.05;;;8.95;;
55288;SDS011;41154;45.394;5.734;2022-12-18T08:06:50;16.48;;;8.25;;
55288;SDS011;41154;45.394;5.734;2022-12-18T08:09:16;13.05;;;8.38;;
55288;SDS011;41154;45.394;5.734;2022-12-18T08:11:42;12.98;;;7.25;;
55288;SDS011;41154;45.394;5.734;2022-12-18T08:14:08;12.35;;;7.57;;
55288;SDS011;41154;45.394;5.734;2022-12-18T08:16:33;17.30;;;9.88;;
55288;SDS011;41154;45.394;5.734;2022-12-18T08:18:59;21.95;;;10.68;;
55288;SDS011;41154;45.394;5.734;2022-12-18T08:21:26;11.90;;;8.27;;
55288;SDS011;41154;45.394;5.734;2022-12-18T08:23:54;14.73;;;6.85;;
55288;SDS011;41154;45.394;5.734;2022-12-18T08:26:21;9.15;;;5.88;;
55288;SDS011;41154;45.394;5.734;2022-12-18T08:28:47;20.00;;;9.20;;
55288;SDS011;41154;45.394;5.734;2022-12-18T08:31:14;16.80;;;9.35;;
55288;SDS011;41154;45.394;5.734;2022-12-18T08:33:40;17.80;;;9.45;;
55288;SDS011;41154;45.394;5.734;2022-12-18T08:36:06;18.10;;;7.97;;
55288;SDS011;41154;45.394;5.734;2022-12-18T08:38:33;17.95;;;10.45;;
55288;SDS011;41154;45.394;5.734;2022-12-18T08:43:26;22.50;;;9.75;;
55288;SDS011;41154;45.394;5.734;2022-12-18T08:46:12;24.77;;;11.05;;
55288;SDS011;41154;45.394;5.734;2022-12-18T08:48:38;13.35;;;9.05;;
55288;SDS011;41154;45.394;5.734;2022-12-18T08:51:03;18.77;;;9.40;;
55288;SDS011;41154;45.394;5.734;2022-12-18T08:53:29;19.58;;;10.27;;
55288;SDS011;41154;45.394;5.734;2022-12-18T08:55:56;21.25;;;12.15;;
55288;SDS011;41154;45.394;5.734;2022-12-18T08:58:21;22.42;;;10.52;;
55288;SDS011;41154;45.394;5.734;2022-12-18T09:00:47;11.75;;;8.25;;
55288;SDS011;41154;45.394;5.734;2022-12-18T09:03:14;20.42;;;11.32;;
55288;SDS011;41154;45.394;5.734;2022-12-18T09:05:41;26.38;;;12.60;;
55288;SDS011;41154;45.394;5.734;2022-12-18T09:08:07;20.05;;;12.02;;
55288;SDS011;41154;45.394;5.734;2022-12-18T09:10:32;28.55;;;13.73;;
55288;SDS011;41154;45.394;5.734;2022-12-18T09:12:59;29.17;;;12.90;;
55288;SDS011;41154;45.394;5.734;2022-12-18T09:15:24;24.30;;;12.90;;
55288;SDS011;41154;45.394;5.734;2022-12-18T09:17:50;26.63;;;13.23;;
55288;SDS011;41154;45.394;5.734;2022-12-18T09:20:18;32.05;;;13.88;;
55288;SDS011;41154;45.394;5.734;2022-12-18T09:22:44;32.38;;;14.75;;
55288;SDS011;41154;45.394;5.734;2022-12-18T09:25:10;27.52;;;12.45;;
55288;SDS011;41154;45.394;5.734;2022-12-18T09:27:36;25.48;;;10.65;;
55288;SDS011;41154;45.394;5.734;2022-12-18T09:30:02;21.65;;;11.43;;
55288;SDS011;41154;45.394;5.734;2022-12-18T09:32:29;26.42;;;12.40;;
55288;SDS011;41154;45.394;5.734;2022-12-18T09:34:55;24.63;;;12.68;;
55288;SDS011;41154;45.394;5.734;2022-12-18T09:37:20;24.05;;;13.77;;
55288;SDS011;41154;45.394;5.734;2022-12-18T09:39:46;19.83;;;11.15;;
55288;SDS011;41154;45.394;5.734;2022-12-18T09:42:17;19.58;;;11.45;;
55288;SDS011;41154;45.394;5.734;2022-12-18T09:44:49;23.50;;;10.95;;
55288;SDS011;41154;45.394;5.734;2022-12-18T09:53:05;35.65;;;17.98;;
55288;SDS011;41154;45.394;5.734;2022-12-18T09:55:39;25.83;;;13.88;;
55288;SDS011;41154;45.394;5.734;2022-12-18T10:00:42;21.38;;;10.75;;
55288;SDS011;41154;45.394;5.734;2022-12-18T10:03:09;23.30;;;12.93;;
55288;SDS011;41154;45.394;5.734;2022-12-18T10:11:36;20.55;;;12.57;;
55288;SDS011;41154;45.394;5.734;2022-12-18T10:17:00;20.02;;;11.65;;
55288;SDS011;41154;45.394;5.734;2022-12-18T10:19:45;26.83;;;11.98;;
55288;SDS011;41154;45.394;5.734;2022-12-18T10:28:22;25.10;;;12.75;;
55288;SDS011;41154;45.394;5.734;2022-12-18T10:30:49;29.45;;;12.57;;
55288;SDS011;41154;45.394;5.734;2022-12-18T10:33:18;19.92;;;10.02;;
55288;SDS011;41154;45.394;5.734;2022-12-18T10:35:47;24.15;;;12.43;;
55288;SDS011;41154;45.394;5.734;2022-12-18T10:41:03;15.25;;;9.07;;
55288;SDS011;41154;45.394;5.734;2022-12-18T10:43:34;20.38;;;11.07;;
55288;SDS011;41154;45.394;5.734;2022-12-18T10:46:03;19.80;;;10.38;;
55288;SDS011;41154;45.394;5.734;2022-12-18T10:48:33;19.10;;;11.10;;
55288;SDS011;41154;45.394;5.734;2022-12-18T10:51:05;22.58;;;11.65;;
55288;SDS011;41154;45.394;5.734;2022-12-18T10:53:33;17.73;;;9.98;;
55288;SDS011;41154;45.394;5.734;2022-12-18T10:56:02;19.55;;;11.25;;
55288;SDS011;41154;45.394;5.734;2022-12-18T10:58:37;19.52;;;10.98;;
55288;SDS011;41154;45.394;5.734;2022-12-18T11:03:37;18.67;;;10.65;;
55288;SDS011;41154;45.394;5.734;2022-12-18T11:06:07;17.17;;;8.95;;
55288;SDS011;41154;45.394;5.734;2022-12-18T11:08:44;14.73;;;8.57;;
55288;SDS011;41154;45.394;5.734;2022-12-18T11:11:32;11.45;;;7.10;;
55288;SDS011;41154;45.394;5.734;2022-12-18T11:14:15;19.63;;;8.30;;
55288;SDS011;41154;45.394;5.734;2022-12-18T11:16:47;17.52;;;7.95;;
55288;SDS011;41154;45.394;5.734;2022-12-18T11:22:03;12.63;;;5.78;;
55288;SDS011;41154;45.394;5.734;2022-12-18T11:24:49;10.05;;;5.30;;
55288;SDS011;41154;45.394;5.734;2022-12-18T11:29:46;7.95;;;4.47;;
55288;SDS011;41154;45.394;5.734;2022-12-18T11:32:37;6.40;;;4.30;;
55288;SDS011;41154;45.394;5.734;2022-12-18T11:35:10;12.55;;;6.68;;
55288;SDS011;41154;45.394;5.734;2022-12-18T11:38:32;12.45;;;6.72;;
55288;SDS011;41154;45.394;5.734;2022-12-18T11:41:00;5.43;;;3.55;;
55288;SDS011;41154;45.394;5.734;2022-12-18T11:43:36;6.57;;;3.88;;
55288;SDS011;41154;45.394;5.734;2022-12-18T11:46:17;7.82;;;4.07;;
55288;SDS011;41154;45.394;5.734;2022-12-18T11:51:19;3.67;;;2.75;;
55288;SDS011;41154;45.394;5.734;2022-12-18T11:53:53;5.47;;;2.95;;
55288;SDS011;41154;45.394;5.734;2022-12-18T11:56:40;3.22;;;2.22;;
55288;SDS011;41154;45.394;5.734;2022-12-18T11:59:24;7.05;;;3.35;;
55288;SDS011;41154;45.394;5.734;2022-12-18T12:02:02;7.03;;;3.00;;
55288;SDS011;41154;45.394;5.734;2022-12-18T12:12:59;7.82;;;3.42;;
55288;SDS011;41154;45.394;5.734;2022-12-18T12:15:51;6.72;;;2.60;;
55288;SDS011;41154;45.394;5.734;2022-12-18T12:29:46;1.92;;;1.15;;
55288;SDS011;41154;45.394;5.734;2022-12-18T12:35:49;4.35;;;2.22;;
55288;SDS011;41154;45.394;5.734;2022-12-18T12:38:24;4.50;;;1.90;;
55288;SDS011;41154;45.394;5.734;2022-12-18T12:40:59;5.40;;;2.65;;
55288;SDS011;41154;45.394;5.734;2022-12-18T12:43:54;3.65;;;2.58;;
55288;SDS011;41154;45.394;5.734;2022-12-18T12:46:23;4.82;;;2.78;;
55288;SDS011;41154;45.394;5.734;2022-12-18T12:49:01;3.75;;;2.25;;
55288;SDS011;41154;45.394;5.734;2022-12-18T12:54:06;4.28;;;1.90;;
55288;SDS011;41154;45.394;5.734;2022-12-18T12:59:30;1.35;;;1.02;;
55288;SDS011;41154;45.394;5.734;2022-12-18T13:02:18;3.13;;;1.73;;
55288;SDS011;41154;45.394;5.734;2022-12-18T13:04:57;3.83;;;1.67;;
55288;SDS011;41154;45.394;5.734;2022-12-18T13:07:32;8.30;;;1.70;;
55288;SDS011;41154;45.394;5.734;2022-12-18T13:12:55;2.00;;;0.80;;
55288;SDS011;41154;45.394;5.734;2022-12-18T13:20:34;4.53;;;1.23;;
55288;SDS011;41154;45.394;5.734;2022-12-18T13:23:00;1.90;;;1.02;;
55288;SDS011;41154;45.394;5.734;2022-12-18T13:25:33;1.83;;;1.08;;
55288;SDS011;41154;45.394;5.734;2022-12-18T13:28:03;3.70;;;1.58;;
55288;SDS011;41154;45.394;5.734;2022-12-18T13:30:47;1.52;;;1.42;;
55288;SDS011;41154;45.394;5.734;2022-12-18T13:41:44;2.08;;;1.38;;
55288;SDS011;41154;45.394;5.734;2022-12-18T13:47:05;1.85;;;1.27;;
55288;SDS011;41154;45.394;5.734;2022-12-18T13:49:53;1.98;;;0.73;;
55288;SDS011;41154;45.394;5.734;2022-12-18T13:52:25;0.73;;;0.73;;
55288;SDS011;41154;45.394;5.734;2022-12-18T13:54:54;0.68;;;0.55;;
55288;SDS011;41154;45.394;5.734;2022-12-18T13:57:28;2.58;;;1.58;;
55288;SDS011;41154;45.394;5.734;2022-12-18T13:59:56;1.17;;;1.05;;
55288;SDS011;41154;45.394;5.734;2022-12-18T14:02:25;1.55;;;1.20;;
55288;SDS011;41154;45.394;5.734;2022-12-18T14:04:52;2.25;;;1.08;;
55288;SDS011;41154;45.394;5.734;2022-12-18T14:07:22;3.55;;;1.65;;
55288;SDS011;41154;45.394;5.734;2022-12-18T14:09:53;2.33;;;1.40;;
55288;SDS011;41154;45.394;5.734;2022-12-18T14:12:26;2.67;;;1.35;;
55288;SDS011;41154;45.394;5.734;2022-12-18T14:17:55;1.58;;;1.20;;
55288;SDS011;41154;45.394;5.734;2022-12-18T14:20:25;1.60;;;1.23;;
55288;SDS011;41154;45.394;5.734;2022-12-18T14:22:52;2.10;;;1.20;;
55288;SDS011;41154;45.394;5.734;2022-12-18T14:25:19;2.83;;;1.50;;
55288;SDS011;41154;45.394;5.734;2022-12-18T14:28:08;2.45;;;1.30;;
55288;SDS011;41154;45.394;5.734;2022-12-18T14:30:40;1.58;;;1.17;;
55288;SDS011;41154;45.394;5.734;2022-12-18T14:33:11;2.42;;;1.20;;
55288;SDS011;41154;45.394;5.734;2022-12-18T14:35:40;3.53;;;1.63;;
55288;SDS011;41154;45.394;5.734;2022-12-18T14:38:35;3.50;;;1.92;;
55288;SDS011;41154;45.394;5.734;2022-12-18T14:41:03;2.50;;;1.73;;
55288;SDS011;41154;45.394;5.734;2022-12-18T14:43:32;3.80;;;1.55;;
55288;SDS011;41154;45.394;5.734;2022-12-18T14:46:00;2.00;;;1.20;;
55288;SDS011;41154;45.394;5.734;2022-12-18T14:51:03;2.28;;;1.60;;
55288;SDS011;41154;45.394;5.734;2022-12-18T14:56:04;2.72;;;1.88;;
55288;SDS011;41154;45.394;5.734;2022-12-18T14:58:43;1.10;;;1.00;;
55288;SDS011;41154;45.394;5.734;2022-12-18T15:01:17;3.20;;;1.95;;
55288;SDS011;41154;45.394;5.734;2022-12-18T15:03:46;4.28;;;1.85;;
55288;SDS011;41154;45.394;5.734;2022-12-18T15:06:15;2.03;;;0.95;;
55288;SDS011;41154;45.394;5.734;2022-12-18T15:08:42;3.90;;;1.25;;
55288;SDS011;41154;45.394;5.734;2022-12-18T15:13:54;1.33;;;1.05;;
55288;SDS011;41154;45.394;5.734;2022-12-18T15:16:19;2.95;;;1.35;;
55288;SDS011;41154;45.394;5.734;2022-12-18T15:18:45;1.90;;;1.20;;
55288;SDS011;41154;45.394;5.734;2022-12-18T15:21:18;2.00;;;1.58;;
55288;SDS011;41154;45.394;5.734;2022-12-18T15:23:46;3.45;;;1.85;;
55288;SDS011;41154;45.394;5.734;2022-12-18T15:26:15;2.53;;;1.67;;
55288;SDS011;41154;45.394;5.734;2022-12-18T15:28:44;1.65;;;1.08;;
55288;SDS011;41154;45.394;5.734;2022-12-18T15:33:45;2.33;;;1.30;;
55288;SDS011;41154;45.394;5.734;2022-12-18T15:36:16;2.50;;;1.63;;
55288;SDS011;41154;45.394;5.734;2022-12-18T15:38:45;3.15;;;1.63;;
55288;SDS011;41154;45.394;5.734;2022-12-18T15:41:16;2.78;;;1.50;;
55288;SDS011;41154;45.394;5.734;2022-12-18T15:43:43;1.67;;;1.35;;
55288;SDS011;41154;45.394;5.734;2022-12-18T15:46:11;1.95;;;1.25;;
55288;SDS011;41154;45.394;5.734;2022-12-18T15:48:50;2.33;;;1.35;;
55288;SDS011;41154;45.394;5.734;2022-12-18T15:51:21;0.85;;;0.80;;
55288;SDS011;41154;45.394;5.734;2022-12-18T15:53:51;1.17;;;0.98;;
55288;SDS011;41154;45.394;5.734;2022-12-18T15:56:19;2.60;;;1.27;;
55288;SDS011;41154;45.394;5.734;2022-12-18T15:59:07;1.88;;;1.13;;
55288;SDS011;41154;45.394;5.734;2022-12-18T16:01:38;6.13;;;1.48;;
55288;SDS011;41154;45.394;5.734;2022-12-18T16:04:05;7.78;;;3.53;;
55288;SDS011;41154;45.394;5.734;2022-12-18T16:06:31;9.75;;;5.32;;
55288;SDS011;41154;45.394;5.734;2022-12-18T16:08:56;6.82;;;2.55;;
55288;SDS011;41154;45.394;5.734;2022-12-18T16:11:23;3.55;;;2.45;;
55288;SDS011;41154;45.394;5.734;2022-12-18T16:14:11;5.97;;;2.15;;
55288;SDS011;41154;45.394;5.734;2022-12-18T16:16:49;1.90;;;1.50;;
55288;SDS011;41154;45.394;5.734;2022-12-18T16:19:17;2.70;;;1.20;;
55288;SDS011;41154;45.394;5.734;2022-12-18T16:21:44;2.72;;;1.85;;
55288;SDS011;41154;45.394;5.734;2022-12-18T16:24:18;2.28;;;1.58;;
55288;SDS011;41154;45.394;5.734;2022-12-18T16:26:47;2.28;;;1.20;;
55288;SDS011;41154;45.394;5.734;2022-12-18T16:29:14;5.45;;;2.88;;
55288;SDS011;41154;45.394;5.734;2022-12-18T16:31:40;3.40;;;1.88;;
55288;SDS011;41154;45.394;5.734;2022-12-18T16:34:24;4.55;;;3.15;;
55288;SDS011;41154;45.394;5.734;2022-12-18T16:36:57;11.30;;;3.28;;
55288;SDS011;41154;45.394;5.734;2022-12-18T16:39:25;9.32;;;3.17;;
55288;SDS011;41154;45.394;5.734;2022-12-18T16:41:51;6.57;;;3.35;;
55288;SDS011;41154;45.394;5.734;2022-12-18T16:44:16;7.30;;;3.88;;
55288;SDS011;41154;45.394;5.734;2022-12-18T16:46:43;6.53;;;2.75;;
55288;SDS011;41154;45.394;5.734;2022-12-18T16:49:13;6.28;;;2.33;;
55288;SDS011;41154;45.394;5.734;2022-12-18T16:51:40;2.97;;;2.17;;
55288;SDS011;41154;45.394;5.734;2022-12-18T16:54:06;4.40;;;1.88;;
55288;SDS011;41154;45.394;5.734;2022-12-18T16:56:32;4.47;;;2.40;;
55288;SDS011;41154;45.394;5.734;2022-12-18T16:58:59;3.47;;;2.47;;
55288;SDS011;41154;45.394;5.734;2022-12-18T17:01:26;9.27;;;4.93;;
55288;SDS011;41154;45.394;5.734;2022-12-18T17:03:57;11.02;;;6.90;;
55288;SDS011;41154;45.394;5.734;2022-12-18T17:06:29;6.95;;;4.93;;
55288;SDS011;41154;45.394;5.734;2022-12-18T17:09:01;5.97;;;3.58;;
55288;SDS011;41154;45.394;5.734;2022-12-18T17:11:29;5.25;;;2.60;;
55288;SDS011;41154;45.394;5.734;2022-12-18T17:13:56;5.28;;;2.40;;